sensor_id;sensor_type;location;lat;lon;timestamp;temperature;humidity
4312;DHT22;2169;49.086;9.284;2022-11-25T00:00:03;4.30;69.20
4312;DHT22;2169;49.086;9.284;2022-11-25T00:02:31;4.30;69.20
4312;DHT22;2169;49.086;9.284;2022-11-25T00:04:58;4.20;69.20
4312;DHT22;2169;49.086;9.284;2022-11-25T00:07:25;4.20;69.20
4312;DHT22;2169;49.086;9.284;2022-11-25T00:09:52;4.20;69.20
4312;DHT22;2169;49.086;9.284;2022-11-25T00:12:21;4.20;69.30
4312;DHT22;2169;49.086;9.284;2022-11-25T00:14:48;4.20;69.40
4312;DHT22;2169;49.086;9.284;2022-11-25T00:17:20;4.20;69.50
4312;DHT22;2169;49.086;9.284;2022-11-25T00:19:47;4.20;69.50
4312;DHT22;2169;49.086;9.284;2022-11-25T00:22:15;4.20;69.50
4312;DHT22;2169;49.086;9.284;2022-11-25T00:24:42;4.20;69.60
4312;DHT22;2169;49.086;9.284;2022-11-25T00:27:09;4.20;69.60
4312;DHT22;2169;49.086;9.284;2022-11-25T00:29:36;4.20;70.00
4312;DHT22;2169;49.086;9.284;2022-11-25T00:32:03;4.20;69.60
4312;DHT22;2169;49.086;9.284;2022-11-25T00:34:36;4.20;69.70
4312;DHT22;2169;49.086;9.284;2022-11-25T00:37:03;4.10;69.60
4312;DHT22;2169;49.086;9.284;2022-11-25T00:39:31;4.10;69.60
4312;DHT22;2169;49.086;9.284;2022-11-25T00:41:58;4.10;69.70
4312;DHT22;2169;49.086;9.284;2022-11-25T00:44:42;4.10;69.70
4312;DHT22;2169;49.086;9.284;2022-11-25T00:47:13;4.10;69.80
4312;DHT22;2169;49.086;9.284;2022-11-25T00:49:43;4.10;69.80
4312;DHT22;2169;49.086;9.284;2022-11-25T00:52:13;4.00;69.70
4312;DHT22;2169;49.086;9.284;2022-11-25T00:54:40;4.00;69.80
4312;DHT22;2169;49.086;9.284;2022-11-25T00:57:09;4.00;69.90
4312;DHT22;2169;49.086;9.284;2022-11-25T00:59:36;4.00;69.80
4312;DHT22;2169;49.086;9.284;2022-11-25T01:02:04;4.00;69.80
4312;DHT22;2169;49.086;9.284;2022-11-25T01:04:31;4.00;69.90
4312;DHT22;2169;49.086;9.284;2022-11-25T01:07:00;3.90;69.80
4312;DHT22;2169;49.086;9.284;2022-11-25T01:09:28;3.90;69.80
4312;DHT22;2169;49.086;9.284;2022-11-25T01:11:56;3.90;69.90
4312;DHT22;2169;49.086;9.284;2022-11-25T01:14:24;3.90;69.90
4312;DHT22;2169;49.086;9.284;2022-11-25T01:16:52;3.90;69.90
4312;DHT22;2169;49.086;9.284;2022-11-25T01:19:19;3.90;70.00
4312;DHT22;2169;49.086;9.284;2022-11-25T01:21:46;3.90;70.00
4312;DHT22;2169;49.086;9.284;2022-11-25T01:24:16;3.90;70.10
4312;DHT22;2169;49.086;9.284;2022-11-25T01:26:44;3.80;70.00
4312;DHT22;2169;49.086;9.284;2022-11-25T01:29:13;3.80;70.00
4312;DHT22;2169;49.086;9.284;2022-11-25T01:31:41;3.80;70.10
4312;DHT22;2169;49.086;9.284;2022-11-25T01:34:16;3.80;70.10
4312;DHT22;2169;49.086;9.284;2022-11-25T01:36:46;3.80;70.20
4312;DHT22;2169;49.086;9.284;2022-11-25T01:39:17;3.80;70.20
4312;DHT22;2169;49.086;9.284;2022-11-25T01:41:46;3.80;70.30
4312;DHT22;2169;49.086;9.284;2022-11-25T01:44:19;3.80;70.30
4312;DHT22;2169;49.086;9.284;2022-11-25T01:46:53;3.80;70.30
4312;DHT22;2169;49.086;9.284;2022-11-25T01:49:26;3.80;70.40
4312;DHT22;2169;49.086;9.284;2022-11-25T01:51:57;3.80;70.40
4312;DHT22;2169;49.086;9.284;2022-11-25T01:54:33;3.80;70.40
4312;DHT22;2169;49.086;9.284;2022-11-25T01:57:03;3.80;70.50
4312;DHT22;2169;49.086;9.284;2022-11-25T01:59:37;3.80;70.60
4312;DHT22;2169;49.086;9.284;2022-11-25T02:02:07;3.80;70.60
4312;DHT22;2169;49.086;9.284;2022-11-25T02:04:35;3.70;70.50
4312;DHT22;2169;49.086;9.284;2022-11-25T02:07:10;3.70;70.50
4312;DHT22;2169;49.086;9.284;2022-11-25T02:09:41;3.70;70.60
4312;DHT22;2169;49.086;9.284;2022-11-25T02:12:09;3.70;70.60
4312;DHT22;2169;49.086;9.284;2022-11-25T02:14:36;3.70;70.60
4312;DHT22;2169;49.086;9.284;2022-11-25T02:17:03;3.70;70.60
4312;DHT22;2169;49.086;9.284;2022-11-25T02:19:48;3.70;70.70
4312;DHT22;2169;49.086;9.284;2022-11-25T02:22:23;3.70;70.80
4312;DHT22;2169;49.086;9.284;2022-11-25T02:24:57;3.70;70.80
4312;DHT22;2169;49.086;9.284;2022-11-25T02:27:28;3.70;70.90
4312;DHT22;2169;49.086;9.284;2022-11-25T02:29:55;3.70;70.90
4312;DHT22;2169;49.086;9.284;2022-11-25T02:32:22;3.70;71.60
4312;DHT22;2169;49.086;9.284;2022-11-25T02:34:50;3.70;71.00
4312;DHT22;2169;49.086;9.284;2022-11-25T02:37:20;3.70;70.90
4312;DHT22;2169;49.086;9.284;2022-11-25T02:39:49;3.70;71.00
4312;DHT22;2169;49.086;9.284;2022-11-25T02:42:18;3.70;71.00
4312;DHT22;2169;49.086;9.284;2022-11-25T02:44:48;3.70;71.00
4312;DHT22;2169;49.086;9.284;2022-11-25T02:47:16;3.70;71.10
4312;DHT22;2169;49.086;9.284;2022-11-25T02:49:43;3.70;71.20
4312;DHT22;2169;49.086;9.284;2022-11-25T02:52:10;3.70;71.20
4312;DHT22;2169;49.086;9.284;2022-11-25T02:54:38;3.70;71.20
4312;DHT22;2169;49.086;9.284;2022-11-25T02:57:05;3.70;71.30
4312;DHT22;2169;49.086;9.284;2022-11-25T02:59:32;3.70;71.30
4312;DHT22;2169;49.086;9.284;2022-11-25T03:02:00;3.70;71.30
4312;DHT22;2169;49.086;9.284;2022-11-25T03:04:28;3.70;71.30
4312;DHT22;2169;49.086;9.284;2022-11-25T03:06:54;3.70;71.40
4312;DHT22;2169;49.086;9.284;2022-11-25T03:09:21;3.70;71.40
4312;DHT22;2169;49.086;9.284;2022-11-25T03:11:49;3.70;71.40
4312;DHT22;2169;49.086;9.284;2022-11-25T03:14:33;3.70;71.50
4312;DHT22;2169;49.086;9.284;2022-11-25T03:17:02;3.70;71.50
4312;DHT22;2169;49.086;9.284;2022-11-25T03:19:29;3.70;71.50
4312;DHT22;2169;49.086;9.284;2022-11-25T03:21:57;3.70;71.60
4312;DHT22;2169;49.086;9.284;2022-11-25T03:24:26;3.70;71.60
4312;DHT22;2169;49.086;9.284;2022-11-25T03:26:54;3.70;71.70
4312;DHT22;2169;49.086;9.284;2022-11-25T03:29:23;3.70;71.70
4312;DHT22;2169;49.086;9.284;2022-11-25T03:31:50;3.70;71.70
4312;DHT22;2169;49.086;9.284;2022-11-25T03:34:18;3.70;71.70
4312;DHT22;2169;49.086;9.284;2022-11-25T03:36:45;3.70;71.70
4312;DHT22;2169;49.086;9.284;2022-11-25T03:39:12;3.70;71.80
4312;DHT22;2169;49.086;9.284;2022-11-25T03:41:40;3.70;71.80
4312;DHT22;2169;49.086;9.284;2022-11-25T03:44:08;3.70;71.80
4312;DHT22;2169;49.086;9.284;2022-11-25T03:46:35;3.70;71.90
4312;DHT22;2169;49.086;9.284;2022-11-25T03:49:03;3.70;72.00
4312;DHT22;2169;49.086;9.284;2022-11-25T03:51:31;3.70;72.00
4312;DHT22;2169;49.086;9.284;2022-11-25T03:53:59;3.70;72.00
4312;DHT22;2169;49.086;9.284;2022-11-25T03:56:26;3.70;72.70
4312;DHT22;2169;49.086;9.284;2022-11-25T03:58:53;3.70;72.00
4312;DHT22;2169;49.086;9.284;2022-11-25T04:01:20;3.70;72.00
4312;DHT22;2169;49.086;9.284;2022-11-25T04:03:48;3.70;72.10
4312;DHT22;2169;49.086;9.284;2022-11-25T04:06:15;3.70;72.10
4312;DHT22;2169;49.086;9.284;2022-11-25T04:08:45;3.70;72.20
4312;DHT22;2169;49.086;9.284;2022-11-25T04:11:13;3.70;72.20
4312;DHT22;2169;49.086;9.284;2022-11-25T04:13:41;3.70;72.10
4312;DHT22;2169;49.086;9.284;2022-11-25T04:16:17;3.70;72.90
4312;DHT22;2169;49.086;9.284;2022-11-25T04:18:45;3.70;72.20
4312;DHT22;2169;49.086;9.284;2022-11-25T04:21:13;3.70;72.20
4312;DHT22;2169;49.086;9.284;2022-11-25T04:23:41;3.70;72.20
4312;DHT22;2169;49.086;9.284;2022-11-25T04:26:10;3.70;72.20
4312;DHT22;2169;49.086;9.284;2022-11-25T04:28:38;3.70;72.20
4312;DHT22;2169;49.086;9.284;2022-11-25T04:31:06;3.60;72.20
4312;DHT22;2169;49.086;9.284;2022-11-25T04:33:36;3.70;72.40
4312;DHT22;2169;49.086;9.284;2022-11-25T04:36:04;3.70;72.40
4312;DHT22;2169;49.086;9.284;2022-11-25T04:38:32;3.60;72.30
4312;DHT22;2169;49.086;9.284;2022-11-25T04:41:03;3.70;72.40
4312;DHT22;2169;49.086;9.284;2022-11-25T04:43:31;3.60;72.40
4312;DHT22;2169;49.086;9.284;2022-11-25T04:45:59;3.70;72.50
4312;DHT22;2169;49.086;9.284;2022-11-25T04:48:26;3.70;72.50
4312;DHT22;2169;49.086;9.284;2022-11-25T04:50:56;3.70;73.20
4312;DHT22;2169;49.086;9.284;2022-11-25T04:53:23;3.70;72.60
4312;DHT22;2169;49.086;9.284;2022-11-25T04:55:50;3.70;72.60
4312;DHT22;2169;49.086;9.284;2022-11-25T04:58:18;3.70;72.70
4312;DHT22;2169;49.086;9.284;2022-11-25T05:01:07;3.70;72.70
4312;DHT22;2169;49.086;9.284;2022-11-25T05:03:33;3.70;72.70
4312;DHT22;2169;49.086;9.284;2022-11-25T05:06:04;3.70;72.70
4312;DHT22;2169;49.086;9.284;2022-11-25T05:08:32;3.70;72.70
4312;DHT22;2169;49.086;9.284;2022-11-25T05:11:00;3.70;72.80
4312;DHT22;2169;49.086;9.284;2022-11-25T05:13:28;3.70;72.80
4312;DHT22;2169;49.086;9.284;2022-11-25T05:15:57;3.70;72.80
4312;DHT22;2169;49.086;9.284;2022-11-25T05:18:26;3.70;72.90
4312;DHT22;2169;49.086;9.284;2022-11-25T05:21:00;3.70;72.90
4312;DHT22;2169;49.086;9.284;2022-11-25T05:23:27;3.70;72.90
4312;DHT22;2169;49.086;9.284;2022-11-25T05:25:58;3.70;72.90
4312;DHT22;2169;49.086;9.284;2022-11-25T05:28:25;3.70;72.90
4312;DHT22;2169;49.086;9.284;2022-11-25T05:30:52;3.70;72.90
4312;DHT22;2169;49.086;9.284;2022-11-25T05:33:20;3.80;73.10
4312;DHT22;2169;49.086;9.284;2022-11-25T05:35:56;3.80;73.10
4312;DHT22;2169;49.086;9.284;2022-11-25T05:38:25;3.80;73.10
4312;DHT22;2169;49.086;9.284;2022-11-25T05:40:53;3.80;73.20
4312;DHT22;2169;49.086;9.284;2022-11-25T05:43:20;3.80;73.20
4312;DHT22;2169;49.086;9.284;2022-11-25T05:45:47;3.80;73.20
4312;DHT22;2169;49.086;9.284;2022-11-25T05:48:15;3.80;73.20
4312;DHT22;2169;49.086;9.284;2022-11-25T05:50:43;3.80;73.20
4312;DHT22;2169;49.086;9.284;2022-11-25T05:53:11;3.80;73.30
4312;DHT22;2169;49.086;9.284;2022-11-25T05:55:39;3.80;73.30
4312;DHT22;2169;49.086;9.284;2022-11-25T05:58:07;3.80;73.30
4312;DHT22;2169;49.086;9.284;2022-11-25T06:00:35;3.80;73.30
4312;DHT22;2169;49.086;9.284;2022-11-25T06:03:02;3.80;73.30
4312;DHT22;2169;49.086;9.284;2022-11-25T06:05:29;3.80;73.30
4312;DHT22;2169;49.086;9.284;2022-11-25T06:07:57;3.80;73.30
4312;DHT22;2169;49.086;9.284;2022-11-25T06:10:25;3.70;73.30
4312;DHT22;2169;49.086;9.284;2022-11-25T06:12:52;3.70;73.30
4312;DHT22;2169;49.086;9.284;2022-11-25T06:15:19;3.70;73.30
4312;DHT22;2169;49.086;9.284;2022-11-25T06:17:46;3.70;74.10
4312;DHT22;2169;49.086;9.284;2022-11-25T06:20:14;3.70;73.30
4312;DHT22;2169;49.086;9.284;2022-11-25T06:22:41;3.70;73.30
4312;DHT22;2169;49.086;9.284;2022-11-25T06:25:09;3.60;73.20
4312;DHT22;2169;49.086;9.284;2022-11-25T06:27:38;3.60;73.20
4312;DHT22;2169;49.086;9.284;2022-11-25T06:30:06;3.60;73.20
4312;DHT22;2169;49.086;9.284;2022-11-25T06:32:33;3.60;73.30
4312;DHT22;2169;49.086;9.284;2022-11-25T06:35:02;3.60;73.30
4312;DHT22;2169;49.086;9.284;2022-11-25T06:37:30;3.60;73.30
4312;DHT22;2169;49.086;9.284;2022-11-25T06:39:57;3.60;73.30
4312;DHT22;2169;49.086;9.284;2022-11-25T06:42:24;3.60;73.30
4312;DHT22;2169;49.086;9.284;2022-11-25T06:44:53;3.50;73.20
4312;DHT22;2169;49.086;9.284;2022-11-25T06:47:20;3.50;73.30
4312;DHT22;2169;49.086;9.284;2022-11-25T06:49:48;3.50;73.20
4312;DHT22;2169;49.086;9.284;2022-11-25T06:52:15;3.50;73.20
4312;DHT22;2169;49.086;9.284;2022-11-25T06:54:43;3.50;73.20
4312;DHT22;2169;49.086;9.284;2022-11-25T06:57:11;3.50;73.20
4312;DHT22;2169;49.086;9.284;2022-11-25T06:59:43;3.50;73.30
4312;DHT22;2169;49.086;9.284;2022-11-25T07:02:14;3.50;73.30
4312;DHT22;2169;49.086;9.284;2022-11-25T07:04:41;3.50;73.30
4312;DHT22;2169;49.086;9.284;2022-11-25T07:07:09;3.50;73.30
4312;DHT22;2169;49.086;9.284;2022-11-25T07:09:36;3.40;73.30
4312;DHT22;2169;49.086;9.284;2022-11-25T07:12:03;3.50;73.30
4312;DHT22;2169;49.086;9.284;2022-11-25T07:14:31;3.40;73.30
4312;DHT22;2169;49.086;9.284;2022-11-25T07:16:59;3.40;73.30
4312;DHT22;2169;49.086;9.284;2022-11-25T07:19:28;3.40;73.30
4312;DHT22;2169;49.086;9.284;2022-11-25T07:21:58;3.40;73.30
4312;DHT22;2169;49.086;9.284;2022-11-25T07:24:25;3.40;73.30
4312;DHT22;2169;49.086;9.284;2022-11-25T07:26:53;3.40;74.00
4312;DHT22;2169;49.086;9.284;2022-11-25T07:29:21;3.40;73.40
4312;DHT22;2169;49.086;9.284;2022-11-25T07:31:49;3.40;73.40
4312;DHT22;2169;49.086;9.284;2022-11-25T07:34:18;3.40;73.50
4312;DHT22;2169;49.086;9.284;2022-11-25T07:36:49;3.40;73.50
4312;DHT22;2169;49.086;9.284;2022-11-25T07:39:17;3.50;73.60
4312;DHT22;2169;49.086;9.284;2022-11-25T07:41:48;3.50;73.60
4312;DHT22;2169;49.086;9.284;2022-11-25T07:44:15;3.50;73.70
4312;DHT22;2169;49.086;9.284;2022-11-25T07:46:43;3.50;73.70
4312;DHT22;2169;49.086;9.284;2022-11-25T07:49:13;3.60;73.90
4312;DHT22;2169;49.086;9.284;2022-11-25T07:51:42;3.60;73.90
4312;DHT22;2169;49.086;9.284;2022-11-25T07:54:11;3.60;73.90
4312;DHT22;2169;49.086;9.284;2022-11-25T07:56:40;3.70;74.10
4312;DHT22;2169;49.086;9.284;2022-11-25T07:59:10;3.70;74.20
4312;DHT22;2169;49.086;9.284;2022-11-25T08:01:38;3.80;74.30
4312;DHT22;2169;49.086;9.284;2022-11-25T08:04:06;3.90;74.40
4312;DHT22;2169;49.086;9.284;2022-11-25T08:06:37;3.90;74.60
4312;DHT22;2169;49.086;9.284;2022-11-25T08:09:05;4.00;74.80
4312;DHT22;2169;49.086;9.284;2022-11-25T08:11:34;4.10;75.00
4312;DHT22;2169;49.086;9.284;2022-11-25T08:14:00;4.10;75.00
4312;DHT22;2169;49.086;9.284;2022-11-25T08:16:28;4.20;75.10
4312;DHT22;2169;49.086;9.284;2022-11-25T08:18:57;4.20;75.20
4312;DHT22;2169;49.086;9.284;2022-11-25T08:21:24;4.30;75.40
4312;DHT22;2169;49.086;9.284;2022-11-25T08:23:51;4.40;75.50
4312;DHT22;2169;49.086;9.284;2022-11-25T08:26:20;4.40;75.50
4312;DHT22;2169;49.086;9.284;2022-11-25T08:28:48;4.50;75.60
4312;DHT22;2169;49.086;9.284;2022-11-25T08:31:17;4.50;75.60
4312;DHT22;2169;49.086;9.284;2022-11-25T08:33:45;4.60;75.80
4312;DHT22;2169;49.086;9.284;2022-11-25T08:36:12;4.60;75.80
4312;DHT22;2169;49.086;9.284;2022-11-25T08:38:40;4.60;75.90
4312;DHT22;2169;49.086;9.284;2022-11-25T08:41:09;4.70;76.00
4312;DHT22;2169;49.086;9.284;2022-11-25T08:43:37;4.70;76.20
4312;DHT22;2169;49.086;9.284;2022-11-25T08:46:09;4.80;76.30
4312;DHT22;2169;49.086;9.284;2022-11-25T08:48:36;4.90;76.40
4312;DHT22;2169;49.086;9.284;2022-11-25T08:51:07;4.90;76.40
4312;DHT22;2169;49.086;9.284;2022-11-25T08:53:36;5.00;76.50
4312;DHT22;2169;49.086;9.284;2022-11-25T08:56:04;5.00;76.50
4312;DHT22;2169;49.086;9.284;2022-11-25T08:58:31;5.10;76.70
4312;DHT22;2169;49.086;9.284;2022-11-25T09:00:58;5.10;76.70
4312;DHT22;2169;49.086;9.284;2022-11-25T09:03:27;5.20;76.80
4312;DHT22;2169;49.086;9.284;2022-11-25T09:05:53;5.20;76.80
4312;DHT22;2169;49.086;9.284;2022-11-25T09:08:20;5.30;76.90
4312;DHT22;2169;49.086;9.284;2022-11-25T09:10:47;5.30;76.90
4312;DHT22;2169;49.086;9.284;2022-11-25T09:13:14;5.30;76.90
4312;DHT22;2169;49.086;9.284;2022-11-25T09:15:41;5.40;77.00
4312;DHT22;2169;49.086;9.284;2022-11-25T09:18:09;5.40;77.00
4312;DHT22;2169;49.086;9.284;2022-11-25T09:20:39;5.50;77.20
4312;DHT22;2169;49.086;9.284;2022-11-25T09:23:07;5.50;77.20
4312;DHT22;2169;49.086;9.284;2022-11-25T09:25:34;5.60;77.30
4312;DHT22;2169;49.086;9.284;2022-11-25T09:28:02;5.70;77.40
4312;DHT22;2169;49.086;9.284;2022-11-25T09:30:29;5.70;77.40
4312;DHT22;2169;49.086;9.284;2022-11-25T09:32:57;5.80;77.50
4312;DHT22;2169;49.086;9.284;2022-11-25T09:35:24;5.80;77.50
4312;DHT22;2169;49.086;9.284;2022-11-25T09:37:53;5.90;77.60
4312;DHT22;2169;49.086;9.284;2022-11-25T09:40:24;5.90;77.60
4312;DHT22;2169;49.086;9.284;2022-11-25T09:42:58;6.00;77.70
4312;DHT22;2169;49.086;9.284;2022-11-25T09:45:51;6.10;77.80
4312;DHT22;2169;49.086;9.284;2022-11-25T09:48:57;6.10;77.80
4312;DHT22;2169;49.086;9.284;2022-11-25T09:51:30;6.20;77.90
4312;DHT22;2169;49.086;9.284;2022-11-25T09:54:07;6.30;77.90
4312;DHT22;2169;49.086;9.284;2022-11-25T09:56:40;6.30;77.90
4312;DHT22;2169;49.086;9.284;2022-11-25T09:59:14;6.40;78.00
4312;DHT22;2169;49.086;9.284;2022-11-25T10:01:46;6.40;77.90
4312;DHT22;2169;49.086;9.284;2022-11-25T10:04:18;6.50;78.00
4312;DHT22;2169;49.086;9.284;2022-11-25T10:06:50;6.50;77.90
4312;DHT22;2169;49.086;9.284;2022-11-25T10:09:23;6.60;78.00
4312;DHT22;2169;49.086;9.284;2022-11-25T10:11:52;6.60;78.60
4312;DHT22;2169;49.086;9.284;2022-11-25T10:14:31;6.70;78.00
4312;DHT22;2169;49.086;9.284;2022-11-25T10:17:06;6.70;77.90
4312;DHT22;2169;49.086;9.284;2022-11-25T10:19:48;6.80;77.90
4312;DHT22;2169;49.086;9.284;2022-11-25T10:22:23;6.80;77.90
4312;DHT22;2169;49.086;9.284;2022-11-25T10:24:55;6.90;77.80
4312;DHT22;2169;49.086;9.284;2022-11-25T10:27:25;6.90;77.80
4312;DHT22;2169;49.086;9.284;2022-11-25T10:30:01;6.90;77.70
4312;DHT22;2169;49.086;9.284;2022-11-25T10:32:33;7.00;77.70
4312;DHT22;2169;49.086;9.284;2022-11-25T10:35:10;7.10;77.70
4312;DHT22;2169;49.086;9.284;2022-11-25T10:37:42;7.10;77.70
4312;DHT22;2169;49.086;9.284;2022-11-25T10:40:15;7.10;77.50
4312;DHT22;2169;49.086;9.284;2022-11-25T10:42:42;7.20;77.60
4312;DHT22;2169;49.086;9.284;2022-11-25T10:45:09;7.20;77.50
4312;DHT22;2169;49.086;9.284;2022-11-25T10:47:51;7.30;77.50
4312;DHT22;2169;49.086;9.284;2022-11-25T10:50:29;7.30;77.40
4312;DHT22;2169;49.086;9.284;2022-11-25T10:53:00;7.30;77.40
4312;DHT22;2169;49.086;9.284;2022-11-25T10:55:30;7.40;77.40
4312;DHT22;2169;49.086;9.284;2022-11-25T10:57:58;7.40;77.30
4312;DHT22;2169;49.086;9.284;2022-11-25T11:00:30;7.40;77.20
4312;DHT22;2169;49.086;9.284;2022-11-25T11:03:00;7.50;77.30
4312;DHT22;2169;49.086;9.284;2022-11-25T11:05:43;7.50;77.20
4312;DHT22;2169;49.086;9.284;2022-11-25T11:08:18;7.50;77.80
4312;DHT22;2169;49.086;9.284;2022-11-25T11:11:07;7.60;77.20
4312;DHT22;2169;49.086;9.284;2022-11-25T11:13:34;7.60;77.10
4312;DHT22;2169;49.086;9.284;2022-11-25T11:16:00;7.60;77.10
4312;DHT22;2169;49.086;9.284;2022-11-25T11:18:38;7.60;77.00
4312;DHT22;2169;49.086;9.284;2022-11-25T11:21:07;7.60;76.90
4312;DHT22;2169;49.086;9.284;2022-11-25T11:23:47;7.60;76.90
4312;DHT22;2169;49.086;9.284;2022-11-25T11:26:22;7.70;76.90
4312;DHT22;2169;49.086;9.284;2022-11-25T11:28:57;7.70;76.90
4312;DHT22;2169;49.086;9.284;2022-11-25T11:31:26;7.70;76.90
4312;DHT22;2169;49.086;9.284;2022-11-25T11:33:57;7.70;76.80
4312;DHT22;2169;49.086;9.284;2022-11-25T11:36:36;7.70;76.80
4312;DHT22;2169;49.086;9.284;2022-11-25T11:39:24;7.80;76.80
4312;DHT22;2169;49.086;9.284;2022-11-25T11:42:00;7.80;76.80
4312;DHT22;2169;49.086;9.284;2022-11-25T11:44:34;7.80;76.70
4312;DHT22;2169;49.086;9.284;2022-11-25T11:47:13;7.80;76.60
4312;DHT22;2169;49.086;9.284;2022-11-25T11:50:16;7.80;76.70
4312;DHT22;2169;49.086;9.284;2022-11-25T11:52:54;7.80;76.70
4312;DHT22;2169;49.086;9.284;2022-11-25T11:55:42;7.80;76.70
4312;DHT22;2169;49.086;9.284;2022-11-25T11:58:21;7.80;76.70
4312;DHT22;2169;49.086;9.284;2022-11-25T12:01:03;7.80;76.70
4312;DHT22;2169;49.086;9.284;2022-11-25T12:03:37;7.80;76.70
4312;DHT22;2169;49.086;9.284;2022-11-25T12:06:22;7.90;76.80
4312;DHT22;2169;49.086;9.284;2022-11-25T12:08:54;7.80;76.80
4312;DHT22;2169;49.086;9.284;2022-11-25T12:11:27;7.90;76.90
4312;DHT22;2169;49.086;9.284;2022-11-25T12:14:13;7.90;76.90
4312;DHT22;2169;49.086;9.284;2022-11-25T12:16:49;7.90;76.90
4312;DHT22;2169;49.086;9.284;2022-11-25T12:19:22;7.90;76.90
4312;DHT22;2169;49.086;9.284;2022-11-25T12:21:57;7.90;76.90
4312;DHT22;2169;49.086;9.284;2022-11-25T12:24:29;8.00;77.00
4312;DHT22;2169;49.086;9.284;2022-11-25T12:26:59;8.00;77.10
4312;DHT22;2169;49.086;9.284;2022-11-25T12:29:34;8.00;77.10
4312;DHT22;2169;49.086;9.284;2022-11-25T12:32:20;8.00;77.10
4312;DHT22;2169;49.086;9.284;2022-11-25T12:34:54;8.00;77.10
4312;DHT22;2169;49.086;9.284;2022-11-25T12:37:29;8.00;77.10
4312;DHT22;2169;49.086;9.284;2022-11-25T12:40:02;8.10;77.90
4312;DHT22;2169;49.086;9.284;2022-11-25T12:42:31;8.10;77.20
4312;DHT22;2169;49.086;9.284;2022-11-25T12:45:02;8.10;77.20
4312;DHT22;2169;49.086;9.284;2022-11-25T12:47:30;8.10;77.20
4312;DHT22;2169;49.086;9.284;2022-11-25T12:49:58;8.10;77.20
4312;DHT22;2169;49.086;9.284;2022-11-25T12:52:36;8.10;77.20
4312;DHT22;2169;49.086;9.284;2022-11-25T12:55:15;8.20;77.40
4312;DHT22;2169;49.086;9.284;2022-11-25T12:58:12;8.20;77.40
4312;DHT22;2169;49.086;9.284;2022-11-25T13:07:24;8.20;77.40
4312;DHT22;2169;49.086;9.284;2022-11-25T13:10:34;8.30;77.50
4312;DHT22;2169;49.086;9.284;2022-11-25T13:13:18;8.30;77.50
4312;DHT22;2169;49.086;9.284;2022-11-25T13:15:47;8.30;77.50
4312;DHT22;2169;49.086;9.284;2022-11-25T13:18:19;8.30;77.60
4312;DHT22;2169;49.086;9.284;2022-11-25T13:20:49;8.30;77.60
4312;DHT22;2169;49.086;9.284;2022-11-25T13:23:28;8.40;77.80
4312;DHT22;2169;49.086;9.284;2022-11-25T13:26:34;8.40;77.80
4312;DHT22;2169;49.086;9.284;2022-11-25T13:31:54;8.50;78.00
4312;DHT22;2169;49.086;9.284;2022-11-25T13:34:26;8.50;78.00
4312;DHT22;2169;49.086;9.284;2022-11-25T13:36:55;8.50;78.10
4312;DHT22;2169;49.086;9.284;2022-11-25T13:39:44;8.50;78.10
4312;DHT22;2169;49.086;9.284;2022-11-25T13:42:23;8.60;78.30
4312;DHT22;2169;49.086;9.284;2022-11-25T13:44:52;8.60;78.40
4312;DHT22;2169;49.086;9.284;2022-11-25T13:47:29;8.70;78.50
4312;DHT22;2169;49.086;9.284;2022-11-25T13:50:00;8.70;78.50
4312;DHT22;2169;49.086;9.284;2022-11-25T13:52:40;8.70;78.50
4312;DHT22;2169;49.086;9.284;2022-11-25T13:55:30;8.80;78.70
4312;DHT22;2169;49.086;9.284;2022-11-25T13:58:04;8.80;78.70
4312;DHT22;2169;49.086;9.284;2022-11-25T14:00:47;8.80;78.70
4312;DHT22;2169;49.086;9.284;2022-11-25T14:03:40;8.90;78.80
4312;DHT22;2169;49.086;9.284;2022-11-25T14:06:34;8.90;78.80
4312;DHT22;2169;49.086;9.284;2022-11-25T14:09:04;8.90;78.80
4312;DHT22;2169;49.086;9.284;2022-11-25T14:11:52;9.00;78.90
4312;DHT22;2169;49.086;9.284;2022-11-25T14:14:48;9.00;78.90
4312;DHT22;2169;49.086;9.284;2022-11-25T14:17:28;9.00;78.90
4312;DHT22;2169;49.086;9.284;2022-11-25T14:20:05;9.00;78.90
4312;DHT22;2169;49.086;9.284;2022-11-25T14:23:08;9.10;79.00
4312;DHT22;2169;49.086;9.284;2022-11-25T14:25:46;9.10;79.00
4312;DHT22;2169;49.086;9.284;2022-11-25T14:28:24;9.10;79.60
4312;DHT22;2169;49.086;9.284;2022-11-25T14:30:54;9.10;78.90
4312;DHT22;2169;49.086;9.284;2022-11-25T14:33:28;9.20;79.00
4312;DHT22;2169;49.086;9.284;2022-11-25T14:36:00;9.20;79.10
4312;DHT22;2169;49.086;9.284;2022-11-25T14:38:36;9.20;79.00
4312;DHT22;2169;49.086;9.284;2022-11-25T14:41:09;9.20;79.00
4312;DHT22;2169;49.086;9.284;2022-11-25T14:43:39;9.20;79.00
4312;DHT22;2169;49.086;9.284;2022-11-25T14:46:10;9.20;79.00
4312;DHT22;2169;49.086;9.284;2022-11-25T14:48:42;9.20;79.00
4312;DHT22;2169;49.086;9.284;2022-11-25T14:51:10;9.30;79.00
4312;DHT22;2169;49.086;9.284;2022-11-25T14:53:42;9.30;79.00
4312;DHT22;2169;49.086;9.284;2022-11-25T14:56:10;9.30;78.90
4312;DHT22;2169;49.086;9.284;2022-11-25T14:58:39;9.30;78.90
4312;DHT22;2169;49.086;9.284;2022-11-25T15:01:17;9.30;78.90
4312;DHT22;2169;49.086;9.284;2022-11-25T15:03:46;9.40;79.00
4312;DHT22;2169;49.086;9.284;2022-11-25T15:06:14;9.40;78.90
4312;DHT22;2169;49.086;9.284;2022-11-25T15:08:44;9.40;78.90
4312;DHT22;2169;49.086;9.284;2022-11-25T15:11:13;9.40;78.90
4312;DHT22;2169;49.086;9.284;2022-11-25T15:13:42;9.30;78.70
4312;DHT22;2169;49.086;9.284;2022-11-25T15:16:12;9.40;78.80
4312;DHT22;2169;49.086;9.284;2022-11-25T15:18:46;9.40;78.70
4312;DHT22;2169;49.086;9.284;2022-11-25T15:21:14;9.40;78.70
4312;DHT22;2169;49.086;9.284;2022-11-25T15:23:43;9.30;78.60
4312;DHT22;2169;49.086;9.284;2022-11-25T15:26:16;9.30;78.60
4312;DHT22;2169;49.086;9.284;2022-11-25T15:28:44;9.30;78.60
4312;DHT22;2169;49.086;9.284;2022-11-25T15:31:17;9.30;78.50
4312;DHT22;2169;49.086;9.284;2022-11-25T15:33:44;9.50;78.60
4312;DHT22;2169;49.086;9.284;2022-11-25T15:36:11;9.40;79.20
4312;DHT22;2169;49.086;9.284;2022-11-25T15:38:41;9.40;78.60
4312;DHT22;2169;49.086;9.284;2022-11-25T15:41:26;9.30;78.50
4312;DHT22;2169;49.086;9.284;2022-11-25T15:43:56;9.30;78.50
4312;DHT22;2169;49.086;9.284;2022-11-25T15:46:24;9.30;78.50
4312;DHT22;2169;49.086;9.284;2022-11-25T15:48:54;9.30;78.50
4312;DHT22;2169;49.086;9.284;2022-11-25T15:51:31;9.30;78.50
4312;DHT22;2169;49.086;9.284;2022-11-25T15:54:03;9.30;78.40
4312;DHT22;2169;49.086;9.284;2022-11-25T15:56:34;9.20;78.40
4312;DHT22;2169;49.086;9.284;2022-11-25T15:59:03;9.20;78.30
4312;DHT22;2169;49.086;9.284;2022-11-25T16:01:29;9.20;78.30
4312;DHT22;2169;49.086;9.284;2022-11-25T16:04:16;9.20;78.30
4312;DHT22;2169;49.086;9.284;2022-11-25T16:06:52;9.20;78.30
4312;DHT22;2169;49.086;9.284;2022-11-25T16:09:21;9.30;78.40
4312;DHT22;2169;49.086;9.284;2022-11-25T16:11:51;9.20;78.30
4312;DHT22;2169;49.086;9.284;2022-11-25T16:14:24;9.20;78.30
4312;DHT22;2169;49.086;9.284;2022-11-25T16:17:00;9.20;78.30
4312;DHT22;2169;49.086;9.284;2022-11-25T16:19:30;9.20;78.30
4312;DHT22;2169;49.086;9.284;2022-11-25T16:22:00;9.10;78.30
4312;DHT22;2169;49.086;9.284;2022-11-25T16:24:37;9.20;78.30
4312;DHT22;2169;49.086;9.284;2022-11-25T16:27:21;9.20;78.30
4312;DHT22;2169;49.086;9.284;2022-11-25T16:29:54;9.10;78.20
4312;DHT22;2169;49.086;9.284;2022-11-25T16:32:22;9.10;78.10
4312;DHT22;2169;49.086;9.284;2022-11-25T16:34:49;9.10;78.10
4312;DHT22;2169;49.086;9.284;2022-11-25T16:37:16;9.10;78.10
4312;DHT22;2169;49.086;9.284;2022-11-25T16:39:43;9.10;78.20
4312;DHT22;2169;49.086;9.284;2022-11-25T16:42:17;9.10;78.20
4312;DHT22;2169;49.086;9.284;2022-11-25T16:44:46;9.10;78.20
4312;DHT22;2169;49.086;9.284;2022-11-25T16:47:15;9.10;78.20
4312;DHT22;2169;49.086;9.284;2022-11-25T16:49:42;9.00;78.10
4312;DHT22;2169;49.086;9.284;2022-11-25T16:52:08;9.00;78.10